createdAt,value
2017-09-28T00:01:27.290Z,20.06
2017-09-28T00:03:55.539Z,19.20
2017-09-28T00:06:23.839Z,22.06
2017-09-28T00:08:52.103Z,19.56
2017-09-28T00:11:20.359Z,19.36
2017-09-28T00:13:48.651Z,23.00
2017-09-28T00:16:16.914Z,21.30
2017-09-28T00:18:46.024Z,24.40
2017-09-28T00:21:15.687Z,19.42
2017-09-28T00:23:44.979Z,20.92
2017-09-28T00:26:13.279Z,20.14
2017-09-28T00:28:41.534Z,21.82
2017-09-28T00:31:09.787Z,26.38
2017-09-28T00:33:38.083Z,24.92
2017-09-28T00:36:06.338Z,22.18
2017-09-28T00:38:34.595Z,25.94
2017-09-28T00:41:02.876Z,23.94
2017-09-28T00:43:31.134Z,25.00
2017-09-28T00:46:00.327Z,30.06
2017-09-28T00:48:28.573Z,25.20
2017-09-28T00:50:56.832Z,26.28
2017-09-28T00:53:25.132Z,23.32
2017-09-28T00:55:53.391Z,23.32
2017-09-28T00:58:23.060Z,24.36
2017-09-28T01:00:52.322Z,31.66
2017-09-28T01:03:20.576Z,25.66
2017-09-28T01:05:48.871Z,20.48
2017-09-28T01:08:17.132Z,23.52
2017-09-28T01:10:46.748Z,25.14
2017-09-28T01:13:16.336Z,23.10
2017-09-28T01:15:44.632Z,24.40
2017-09-28T01:18:12.887Z,27.00
2017-09-28T01:20:41.138Z,23.82
2017-09-28T01:23:09.435Z,24.00
2017-09-28T01:25:37.705Z,27.92
2017-09-28T01:28:05.966Z,26.00
2017-09-28T01:30:34.251Z,25.78
2017-09-28T01:33:02.498Z,27.90
2017-09-28T01:35:30.790Z,26.02
2017-09-28T01:37:59.046Z,23.74
2017-09-28T01:40:27.360Z,27.16
2017-09-28T01:42:55.620Z,28.16
2017-09-28T01:45:23.883Z,26.94
2017-09-28T01:47:52.179Z,25.74
2017-09-28T01:50:20.455Z,30.16
2017-09-28T01:52:48.715Z,28.64
2017-09-28T01:55:17.007Z,26.26
2017-09-28T01:57:46.130Z,33.30
2017-09-28T02:00:15.479Z,31.80
2017-09-28T02:02:42.967Z,31.10
2017-09-28T02:05:11.219Z,28.76
2017-09-28T02:07:39.522Z,29.24
2017-09-28T02:10:07.780Z,28.88
2017-09-28T02:12:36.035Z,27.12
2017-09-28T02:15:04.316Z,28.64
2017-09-28T02:17:32.602Z,30.50
2017-09-28T02:20:00.859Z,31.26
2017-09-28T02:22:29.153Z,31.16
2017-09-28T02:24:57.419Z,30.78
2017-09-28T02:27:25.674Z,27.80
2017-09-28T02:29:53.962Z,32.98
2017-09-28T02:32:21.530Z,38.90
2017-09-28T02:34:49.778Z,35.90
2017-09-28T02:37:18.035Z,36.12
2017-09-28T02:39:46.327Z,35.48
2017-09-28T02:42:14.575Z,32.86
2017-09-28T02:44:42.823Z,37.82
2017-09-28T02:47:11.110Z,29.62
2017-09-28T02:49:43.135Z,36.66
2017-09-28T02:52:11.386Z,32.06
2017-09-28T02:54:39.658Z,35.46
2017-09-28T02:57:07.962Z,33.88
2017-09-28T02:59:36.221Z,30.86
2017-09-28T03:02:04.479Z,29.30
2017-09-28T03:04:32.767Z,36.86
2017-09-28T03:07:01.050Z,29.00
2017-09-28T03:09:29.307Z,34.62
2017-09-28T03:11:57.602Z,32.90
2017-09-28T03:14:25.860Z,33.88
2017-09-28T03:16:54.123Z,31.76
2017-09-28T03:19:23.607Z,31.50
2017-09-28T03:21:52.834Z,30.20
2017-09-28T03:24:21.544Z,32.06
2017-09-28T03:26:49.821Z,37.62
2017-09-28T03:29:18.114Z,35.26
2017-09-28T03:31:46.372Z,40.10
2017-09-28T03:34:14.645Z,31.44
2017-09-28T03:36:42.926Z,32.30
2017-09-28T03:39:11.187Z,30.68
2017-09-28T03:41:39.475Z,27.66
2017-09-28T03:44:07.763Z,32.18
2017-09-28T03:46:36.018Z,39.30
2017-09-28T03:49:04.268Z,33.70
2017-09-28T03:51:32.554Z,29.26
2017-09-28T03:54:00.036Z,30.76
2017-09-28T03:56:28.290Z,30.70
2017-09-28T03:58:56.571Z,33.22
2017-09-28T04:01:24.843Z,32.22
2017-09-28T04:03:53.191Z,31.04
2017-09-28T04:06:22.570Z,33.50
2017-09-28T04:08:51.634Z,31.44
2017-09-28T04:11:19.887Z,28.60
2017-09-28T04:13:48.151Z,30.88
2017-09-28T04:16:16.423Z,31.82
2017-09-28T04:18:44.678Z,32.70
2017-09-28T04:21:12.976Z,34.20
2017-09-28T04:23:41.234Z,33.12
2017-09-28T04:26:09.482Z,32.12
2017-09-28T04:28:37.816Z,35.52
2017-09-28T04:31:06.079Z,33.26
2017-09-28T04:33:34.330Z,35.04
2017-09-28T04:36:02.614Z,35.00
2017-09-28T04:38:30.870Z,39.98
2017-09-28T04:40:59.138Z,34.24
2017-09-28T04:43:27.394Z,37.46
2017-09-28T04:45:55.667Z,34.90
2017-09-28T04:48:23.914Z,30.86
2017-09-28T04:50:52.186Z,36.84
2017-09-28T04:53:20.454Z,33.44
2017-09-28T04:55:48.743Z,31.70
2017-09-28T04:58:16.990Z,35.44
2017-09-28T05:00:46.371Z,28.70
2017-09-28T05:03:14.638Z,31.10
2017-09-28T05:05:42.902Z,35.84
2017-09-28T05:08:11.200Z,32.66
2017-09-28T05:10:39.454Z,27.74
2017-09-28T05:13:07.707Z,29.16
2017-09-28T05:15:35.988Z,31.46
2017-09-28T05:18:04.243Z,33.90
2017-09-28T05:20:32.524Z,37.84
2017-09-28T05:23:00.795Z,34.08
2017-09-28T05:25:29.045Z,37.16
2017-09-28T05:27:57.313Z,32.38
2017-09-28T05:30:25.571Z,31.36
2017-09-28T05:32:53.878Z,31.06
2017-09-28T05:35:22.126Z,32.24
2017-09-28T05:37:50.376Z,34.42
2017-09-28T05:40:18.652Z,33.76
2017-09-28T05:42:46.919Z,32.70
2017-09-28T05:45:16.267Z,34.70
2017-09-28T05:47:45.511Z,36.36
2017-09-28T05:50:13.781Z,31.96
2017-09-28T05:52:42.034Z,32.42
2017-09-28T05:55:10.321Z,33.96
2017-09-28T05:57:38.575Z,31.78
2017-09-28T06:00:06.846Z,33.34
2017-09-28T06:02:35.093Z,31.30
2017-09-28T06:05:03.382Z,32.98
2017-09-28T06:07:31.630Z,32.82
2017-09-28T06:09:59.886Z,29.26
2017-09-28T06:12:30.182Z,33.64
2017-09-28T06:14:58.430Z,37.56
2017-09-28T06:17:26.762Z,39.48
2017-09-28T06:19:55.014Z,29.90
2017-09-28T06:22:23.284Z,35.10
2017-09-28T06:24:51.607Z,30.38
2017-09-28T06:27:19.878Z,37.40
2017-09-28T06:29:48.142Z,37.72
2017-09-28T06:32:29.234Z,33.54
2017-09-28T06:34:57.514Z,33.08
2017-09-28T06:37:38.245Z,38.08
2017-09-28T06:40:06.499Z,34.74
2017-09-28T06:42:34.786Z,30.84
2017-09-28T06:45:03.076Z,33.12
2017-09-28T06:47:31.326Z,29.88
2017-09-28T06:49:59.607Z,30.58
2017-09-28T06:52:27.882Z,33.62
2017-09-28T06:54:56.190Z,33.90
2017-09-28T06:57:24.487Z,33.36
2017-09-28T06:59:53.746Z,37.72
2017-09-28T07:02:22.991Z,34.20
2017-09-28T07:04:50.477Z,29.10
2017-09-28T07:07:21.618Z,36.06
2017-09-28T07:09:49.875Z,35.16
2017-09-28T07:12:18.498Z,34.78
2017-09-28T07:14:46.775Z,37.78
2017-09-28T07:17:16.274Z,38.52
2017-09-28T07:19:44.553Z,42.08
2017-09-28T07:22:12.853Z,37.54
2017-09-28T07:24:41.131Z,36.42
2017-09-28T07:27:09.374Z,47.92
2017-09-28T07:29:37.653Z,37.92
2017-09-28T07:32:08.995Z,41.26
2017-09-28T07:34:37.274Z,37.84
2017-09-28T07:37:05.533Z,38.98
2017-09-28T07:39:33.822Z,41.48
2017-09-28T07:42:03.044Z,37.56
2017-09-28T07:44:31.295Z,45.64
2017-09-28T07:46:59.601Z,50.90
2017-09-28T07:49:27.858Z,40.50
2017-09-28T07:51:56.146Z,41.00
2017-09-28T07:54:24.461Z,38.50
2017-09-28T07:56:53.294Z,45.74
2017-09-28T07:59:22.065Z,44.46
2017-09-28T08:01:50.371Z,42.70
2017-09-28T08:04:22.080Z,40.56
2017-09-28T08:06:50.367Z,44.00
2017-09-28T08:09:18.938Z,47.40
2017-09-28T08:11:47.219Z,53.94
2017-09-28T08:14:29.594Z,46.34
2017-09-28T08:16:57.879Z,40.80
2017-09-28T08:19:27.116Z,49.42
2017-09-28T08:21:55.406Z,49.10
2017-09-28T08:24:23.670Z,40.94
2017-09-28T08:26:52.909Z,47.96
2017-09-28T08:29:21.725Z,44.24
2017-09-28T08:31:49.982Z,41.82
2017-09-28T08:34:19.661Z,44.16
2017-09-28T08:36:47.925Z,46.24
2017-09-28T08:39:23.639Z,47.84
2017-09-28T08:41:52.812Z,50.04
2017-09-28T08:44:28.498Z,41.68
2017-09-28T08:46:56.022Z,44.50
2017-09-28T08:49:24.297Z,52.14
2017-09-28T08:51:53.682Z,54.92
2017-09-28T08:54:24.294Z,47.80
2017-09-28T08:56:53.742Z,52.42
2017-09-28T08:59:22.970Z,47.80
2017-09-28T09:01:51.686Z,48.56
2017-09-28T09:04:26.582Z,43.52
2017-09-28T09:06:54.869Z,53.80
2017-09-28T09:09:23.188Z,53.10
2017-09-28T09:11:52.431Z,51.22
2017-09-28T09:14:21.727Z,53.24
2017-09-28T09:16:50.006Z,55.32
2017-09-28T09:19:19.634Z,54.88
2017-09-28T09:21:47.917Z,59.74
2017-09-28T09:24:17.539Z,48.56
2017-09-28T09:26:45.822Z,46.84
2017-09-28T09:29:15.246Z,55.90
2017-09-28T09:31:47.374Z,57.12
2017-09-28T09:34:16.183Z,51.62
2017-09-28T09:36:46.407Z,54.90
2017-09-28T09:39:15.042Z,55.12
2017-09-28T09:41:43.316Z,52.52
2017-09-28T09:44:10.854Z,55.44
2017-09-28T09:46:41.104Z,56.48
2017-09-28T09:49:09.374Z,50.32
2017-09-28T09:51:37.666Z,53.50
2017-09-28T09:54:05.947Z,52.26
2017-09-28T09:56:34.202Z,53.04
2017-09-28T09:59:02.482Z,49.88
2017-09-28T10:01:36.034Z,52.26
2017-09-28T10:04:04.290Z,39.58
2017-09-28T10:06:42.258Z,60.14
2017-09-28T10:09:28.982Z,47.74
2017-09-28T10:12:04.423Z,53.72
2017-09-28T10:14:47.529Z,43.52
2017-09-28T10:17:16.180Z,48.84
2017-09-28T10:19:45.262Z,47.58
2017-09-28T10:22:14.275Z,57.56
2017-09-28T10:24:42.535Z,47.16
2017-09-28T10:27:10.803Z,49.50
2017-09-28T10:29:39.066Z,41.08
2017-09-28T10:32:07.330Z,43.20
2017-09-28T10:34:35.591Z,40.00
2017-09-28T10:37:03.871Z,35.44
2017-09-28T10:39:32.150Z,36.12
2017-09-28T10:42:01.334Z,45.22
2017-09-28T10:44:29.597Z,36.42
2017-09-28T10:46:57.850Z,34.86
2017-09-28T10:49:26.130Z,39.56
2017-09-28T10:51:54.406Z,32.36
2017-09-28T10:54:23.793Z,36.30
2017-09-28T10:56:53.105Z,32.36
2017-09-28T10:59:21.887Z,32.12
2017-09-28T11:01:50.134Z,35.58
2017-09-28T11:04:18.426Z,33.02
2017-09-28T11:06:46.673Z,32.54
2017-09-28T11:09:15.836Z,32.32
2017-09-28T11:11:45.114Z,34.56
2017-09-28T11:14:13.383Z,34.74
2017-09-28T11:16:41.638Z,31.86
2017-09-28T11:19:09.919Z,32.94
2017-09-28T11:21:38.190Z,30.78
2017-09-28T11:24:06.442Z,34.32
2017-09-28T11:26:34.730Z,31.16
2017-09-28T11:29:02.978Z,31.04
2017-09-28T11:31:31.238Z,30.16
2017-09-28T11:33:59.543Z,27.96
2017-09-28T11:36:27.795Z,26.64
2017-09-28T11:38:56.111Z,29.62
2017-09-28T11:41:24.341Z,28.76
2017-09-28T11:43:53.730Z,34.84
2017-09-28T11:46:22.831Z,37.22
2017-09-28T11:48:51.728Z,39.14
2017-09-28T11:51:19.993Z,44.56
2017-09-28T11:53:48.255Z,43.44
2017-09-28T11:56:16.522Z,45.08
2017-09-28T11:58:44.770Z,48.80
2017-09-28T12:01:13.055Z,42.18
2017-09-28T12:03:41.311Z,34.50
2017-09-28T12:06:09.580Z,35.76
2017-09-28T12:08:37.863Z,38.78
2017-09-28T12:11:06.119Z,32.80
2017-09-28T12:13:35.407Z,32.44
2017-09-28T12:16:03.684Z,32.12
2017-09-28T12:18:31.943Z,30.96
2017-09-28T12:21:00.218Z,32.06
2017-09-28T12:23:28.475Z,33.92
2017-09-28T12:25:56.750Z,26.58
2017-09-28T12:28:25.002Z,28.08
2017-09-28T12:30:53.278Z,28.60
2017-09-28T12:33:22.653Z,31.92
2017-09-28T12:35:50.938Z,31.08
2017-09-28T12:38:19.191Z,24.94
2017-09-28T12:40:47.458Z,22.26
2017-09-28T12:43:21.793Z,23.96
2017-09-28T12:45:50.083Z,19.38
2017-09-28T12:48:17.575Z,24.30
2017-09-28T12:50:45.831Z,21.90
2017-09-28T12:53:15.151Z,19.14
2017-09-28T12:55:43.389Z,21.20
2017-09-28T12:58:11.674Z,20.78
2017-09-28T13:00:39.923Z,18.84
2017-09-28T13:03:08.216Z,26.60
2017-09-28T13:05:36.475Z,20.92
2017-09-28T13:08:04.731Z,24.28
2017-09-28T13:10:32.996Z,22.28
2017-09-28T13:13:01.247Z,18.42
2017-09-28T13:15:28.777Z,19.88
2017-09-28T13:17:57.041Z,19.54
2017-09-28T13:20:25.294Z,18.00
2017-09-28T13:22:53.565Z,20.86
2017-09-28T13:25:23.240Z,22.40
2017-09-28T13:27:52.574Z,17.94
2017-09-28T13:30:20.821Z,20.02
2017-09-28T13:32:49.070Z,17.66
2017-09-28T13:35:17.342Z,20.60
2017-09-28T13:37:51.752Z,18.56
2017-09-28T13:40:20.022Z,19.10
2017-09-28T13:42:48.290Z,15.08
2017-09-28T13:45:16.540Z,17.70
2017-09-28T13:47:44.809Z,18.90
2017-09-28T13:50:13.066Z,16.40
2017-09-28T13:52:41.361Z,14.74
2017-09-28T13:55:08.844Z,13.86
2017-09-28T13:57:37.103Z,14.36
2017-09-28T14:00:05.371Z,15.94
2017-09-28T14:02:33.621Z,12.92
2017-09-28T14:05:01.883Z,17.60
2017-09-28T14:07:30.154Z,15.66
2017-09-28T14:09:58.402Z,17.58
2017-09-28T14:12:26.689Z,15.14
2017-09-28T14:14:54.942Z,15.96
2017-09-28T14:17:24.214Z,15.12
2017-09-28T14:19:53.186Z,19.14
2017-09-28T14:22:24.775Z,12.32
2017-09-28T14:24:54.323Z,20.10
2017-09-28T14:27:23.792Z,13.20
2017-09-28T14:29:52.900Z,15.80
2017-09-28T14:32:23.055Z,11.70
2017-09-28T14:34:51.845Z,12.66
2017-09-28T14:37:20.115Z,14.06
2017-09-28T14:39:48.373Z,17.42
2017-09-28T14:42:16.656Z,13.94
2017-09-28T14:44:45.998Z,12.66
2017-09-28T14:47:15.874Z,13.58
2017-09-28T14:49:45.349Z,11.84
2017-09-28T14:52:13.643Z,12.52
2017-09-28T14:54:41.894Z,12.58
2017-09-28T14:57:10.170Z,16.62
2017-09-28T14:59:38.422Z,17.46
2017-09-28T15:02:06.690Z,14.38
2017-09-28T15:04:34.937Z,14.36
2017-09-28T15:07:02.450Z,18.50
2017-09-28T15:09:30.715Z,14.60
2017-09-28T15:11:59.003Z,14.16
2017-09-28T15:14:27.271Z,16.52
2017-09-28T15:16:55.518Z,14.84
2017-09-28T15:19:23.815Z,14.00
2017-09-28T15:21:52.913Z,12.86
2017-09-28T15:24:21.747Z,19.54
2017-09-28T15:26:49.251Z,13.52
2017-09-28T15:29:17.498Z,13.66
2017-09-28T15:31:45.763Z,13.44
2017-09-28T15:34:15.186Z,14.52
2017-09-28T15:36:44.261Z,16.84
2017-09-28T15:39:12.515Z,14.06
2017-09-28T15:41:40.799Z,13.40
2017-09-28T15:44:09.084Z,13.72
2017-09-28T15:46:37.342Z,15.28
2017-09-28T15:49:05.642Z,15.90
2017-09-28T15:51:33.906Z,12.50
2017-09-28T15:54:02.195Z,16.20
2017-09-28T15:56:30.446Z,12.66
2017-09-28T15:58:58.702Z,14.48
2017-09-28T16:01:26.969Z,17.28
2017-09-28T16:03:55.222Z,14.46
2017-09-28T16:06:23.495Z,12.22
2017-09-28T16:08:51.799Z,11.54
2017-09-28T16:11:20.062Z,13.30
2017-09-28T16:13:48.306Z,12.28
2017-09-28T16:16:16.922Z,12.38
2017-09-28T16:18:46.180Z,13.82
2017-09-28T16:21:15.454Z,12.08
2017-09-28T16:23:43.724Z,11.80
2017-09-28T16:26:11.980Z,9.20
2017-09-28T16:28:40.270Z,16.12
2017-09-28T16:31:08.526Z,10.32
2017-09-28T16:33:36.799Z,11.14
2017-09-28T16:36:05.075Z,13.76
2017-09-28T16:38:33.314Z,9.74
2017-09-28T16:41:01.597Z,14.04
2017-09-28T16:43:29.850Z,13.74
2017-09-28T16:45:58.119Z,10.72
2017-09-28T16:48:26.374Z,12.28
2017-09-28T16:50:54.646Z,11.08
2017-09-28T16:53:23.970Z,10.94
2017-09-28T16:55:51.902Z,12.20
2017-09-28T16:58:20.154Z,9.92
2017-09-28T17:00:48.454Z,9.84
2017-09-28T17:03:16.051Z,11.66
2017-09-28T17:05:45.555Z,10.52
2017-09-28T17:08:14.102Z,10.26
2017-09-28T17:10:42.362Z,10.58
2017-09-28T17:13:10.642Z,9.72
2017-09-28T17:15:38.894Z,13.14
2017-09-28T17:18:07.175Z,9.82
2017-09-28T17:20:35.422Z,10.12
2017-09-28T17:23:03.702Z,10.94
2017-09-28T17:25:31.187Z,16.18
2017-09-28T17:27:59.462Z,11.12
2017-09-28T17:30:27.746Z,12.42
2017-09-28T17:32:55.999Z,13.26
2017-09-28T17:35:24.582Z,18.92
2017-09-28T17:37:53.637Z,15.74
2017-09-28T17:40:22.914Z,14.94
2017-09-28T17:42:51.885Z,16.18
2017-09-28T17:45:20.173Z,14.00
2017-09-28T17:47:48.450Z,15.92
2017-09-28T17:50:16.814Z,13.64
2017-09-28T17:52:45.767Z,14.80
2017-09-28T17:55:15.902Z,17.52
2017-09-28T17:57:44.516Z,12.62
2017-09-28T18:00:12.831Z,13.46
2017-09-28T18:02:41.092Z,12.92
2017-09-28T18:05:09.347Z,11.90
2017-09-28T18:07:37.632Z,12.46
2017-09-28T18:10:05.923Z,13.10
2017-09-28T18:12:34.202Z,15.82
2017-09-28T18:15:02.458Z,12.96
2017-09-28T18:17:29.982Z,14.68
2017-09-28T18:19:58.230Z,13.14
2017-09-28T18:22:26.511Z,15.16
2017-09-28T18:24:54.808Z,18.80
2017-09-28T18:27:24.070Z,15.76
2017-09-28T18:29:52.787Z,16.92
2017-09-28T18:32:21.047Z,14.32
2017-09-28T18:34:49.306Z,14.28
2017-09-28T18:37:17.587Z,14.22
2017-09-28T18:39:45.842Z,21.34
2017-09-28T18:42:15.015Z,14.04
2017-09-28T18:44:42.506Z,12.40
2017-09-28T18:47:10.854Z,10.64
2017-09-28T18:49:39.122Z,16.78
2017-09-28T18:55:01.343Z,10.14
2017-09-28T18:57:29.594Z,10.90
2017-09-28T18:59:58.811Z,12.22
2017-09-28T19:02:27.450Z,13.74
2017-09-28T19:04:55.730Z,12.58
2017-09-28T19:07:24.012Z,14.32
2017-09-28T19:09:52.262Z,11.34
2017-09-28T19:12:23.599Z,11.52
2017-09-28T19:14:51.943Z,10.46
2017-09-28T19:17:20.227Z,11.60
2017-09-28T19:19:48.485Z,9.62
2017-09-28T19:22:16.810Z,11.30
2017-09-28T19:24:45.112Z,10.32
2017-09-28T19:27:13.385Z,9.48
2017-09-28T19:29:41.663Z,9.70
2017-09-28T19:32:09.910Z,7.78
2017-09-28T19:34:38.186Z,7.76
2017-09-28T19:37:06.438Z,8.28
2017-09-28T19:39:34.760Z,7.22
2017-09-28T19:42:03.081Z,9.14
2017-09-28T19:44:31.326Z,7.90
2017-09-28T19:46:59.611Z,10.16
2017-09-28T19:49:28.683Z,8.08
2017-09-28T19:51:57.720Z,8.12
2017-09-28T19:54:26.669Z,8.56
2017-09-28T19:56:55.001Z,9.12
2017-09-28T19:59:23.934Z,8.64
2017-09-28T20:01:52.998Z,6.74
2017-09-28T20:04:22.051Z,7.10
2017-09-28T20:06:50.391Z,9.56
2017-09-28T20:09:18.637Z,9.64
2017-09-28T20:11:46.903Z,7.96
2017-09-28T20:14:15.154Z,8.08
2017-09-28T20:16:43.462Z,6.92
2017-09-28T20:19:11.714Z,7.52
2017-09-28T20:21:40.022Z,8.78
2017-09-28T20:24:08.268Z,8.56
2017-09-28T20:26:36.514Z,6.74
2017-09-28T20:29:04.862Z,6.46
2017-09-28T20:31:33.119Z,7.06
2017-09-28T20:34:01.499Z,8.84
2017-09-28T20:36:29.762Z,7.32
2017-09-28T20:38:59.753Z,10.16
2017-09-28T20:41:29.056Z,9.12
2017-09-28T20:43:57.899Z,9.78
2017-09-28T20:46:26.884Z,8.92
2017-09-28T20:48:55.230Z,10.32
2017-09-28T20:51:23.816Z,7.42
2017-09-28T20:53:53.023Z,8.30
2017-09-28T20:56:21.985Z,9.84
2017-09-28T20:58:50.270Z,8.56
2017-09-28T21:01:18.578Z,15.04
2017-09-28T21:03:46.851Z,10.46
2017-09-28T21:06:15.171Z,6.92
2017-09-28T21:08:43.450Z,10.06
2017-09-28T21:11:11.722Z,9.34
2017-09-28T21:13:39.974Z,11.58
2017-09-28T21:16:10.307Z,9.68
2017-09-28T21:18:38.550Z,9.48
2017-09-28T21:21:06.883Z,12.44
2017-09-28T21:23:35.138Z,13.32
2017-09-28T21:26:03.447Z,16.18
2017-09-28T21:28:30.942Z,16.44
2017-09-28T21:31:05.786Z,18.60
2017-09-28T21:33:34.050Z,18.40
2017-09-28T21:36:02.347Z,17.84
2017-09-28T21:38:30.619Z,19.16
2017-09-28T21:41:04.890Z,16.72
2017-09-28T21:43:33.163Z,17.66
2017-09-28T21:46:11.018Z,17.84
2017-09-28T21:48:39.306Z,15.44
2017-09-28T21:51:07.667Z,13.52
2017-09-28T21:53:35.923Z,11.28
2017-09-28T21:56:04.283Z,11.26
2017-09-28T21:58:32.548Z,13.78
2017-09-28T22:01:00.930Z,10.52
2017-09-28T22:03:28.421Z,12.22
2017-09-28T22:05:57.611Z,11.24
2017-09-28T22:08:25.935Z,11.98
2017-09-28T22:10:54.182Z,11.06
2017-09-28T22:13:22.431Z,15.02
2017-09-28T22:15:50.718Z,10.72
2017-09-28T22:18:19.000Z,11.16
2017-09-28T22:20:47.317Z,13.48
2017-09-28T22:23:15.582Z,14.42
2017-09-28T22:25:43.919Z,10.58
2017-09-28T22:28:12.211Z,12.02
2017-09-28T22:30:40.467Z,11.60
2017-09-28T22:33:08.747Z,10.38
2017-09-28T22:35:38.031Z,11.26
2017-09-28T22:38:06.322Z,13.02
2017-09-28T22:40:34.576Z,10.70
2017-09-28T22:43:02.878Z,11.46
2017-09-28T22:45:31.214Z,13.02
2017-09-28T22:47:59.466Z,14.10
2017-09-28T22:50:28.343Z,10.70
2017-09-28T22:52:57.723Z,9.70
2017-09-28T22:55:27.714Z,12.86
2017-09-28T22:57:56.646Z,12.00
2017-09-28T23:00:24.994Z,10.52
2017-09-28T23:02:54.530Z,10.80
2017-09-28T23:05:24.063Z,14.02
2017-09-28T23:07:53.150Z,13.12
2017-09-28T23:10:21.928Z,12.48
2017-09-28T23:12:50.202Z,10.00
2017-09-28T23:15:18.478Z,11.00
2017-09-28T23:17:46.753Z,13.78
2017-09-28T23:20:15.054Z,11.44
2017-09-28T23:22:43.335Z,12.02
2017-09-28T23:25:11.658Z,10.94
2017-09-28T23:27:39.988Z,11.84
2017-09-28T23:30:08.270Z,11.82
2017-09-28T23:32:36.574Z,11.66
2017-09-28T23:35:04.870Z,13.04
2017-09-28T23:37:33.118Z,10.40
2017-09-28T23:40:04.795Z,12.62
2017-09-28T23:42:33.054Z,10.52
2017-09-28T23:45:01.343Z,13.18
2017-09-28T23:47:29.603Z,9.46
2017-09-28T23:49:58.174Z,11.04
2017-09-28T23:52:27.448Z,10.82
2017-09-28T23:54:55.804Z,10.82
2017-09-28T23:57:24.071Z,16.04
2017-09-28T23:59:56.906Z,13.96
